Time;durP1;ratioP1;P1;durP2;ratioP2;P2;SDS_P1;SDS_P2;PMS_P1;PMS_P2;Temp;Humidity;BMP_temperature;BMP_pressure;BME280_temperature;BME280_humidity;BME280_pressure;Samples;Min_cycle;Max_cycle;Signal;HPM_P1;HPM_P2
2020/12/27 00:02:05;;;;;;;7.90;6.68;;;5.10;99.90;;;;;;5075155;28;20048;-86
2020/12/27 00:04:31;;;;;;;9.35;7.43;;;5.10;99.90;;;;;;5074876;28;20131;-86
2020/12/27 00:07:04;;;;;;;7.65;6.95;;;5.10;99.90;;;;;;5092974;28;20169;-86
2020/12/27 00:09:30;;;;;;;10.43;7.78;;;5.10;99.90;;;;;;5092156;28;20127;-86
2020/12/27 00:11:56;;;;;;;7.43;6.70;;;5.10;99.90;;;;;;5090322;28;20131;-87
2020/12/27 00:14:21;;;;;;;8.82;7.38;;;5.10;99.90;;;;;;5081837;28;20090;-89
2020/12/27 00:16:47;;;;;;;8.60;7.35;;;5.10;99.90;;;;;;5070931;28;20064;-87
2020/12/27 00:19:13;;;;;;;7.25;6.55;;;5.20;99.90;;;;;;5054939;28;20037;-86
2020/12/27 00:21:39;;;;;;;6.97;6.38;;;5.20;99.90;;;;;;5070922;28;20047;-86
2020/12/27 00:24:05;;;;;;;5.63;5.05;;;5.10;99.90;;;;;;5071189;28;20494;-88
2020/12/27 00:26:31;;;;;;;5.03;4.53;;;5.20;99.90;;;;;;5071934;28;20044;-87
2020/12/27 00:28:57;;;;;;;6.57;5.97;;;5.20;99.90;;;;;;5054506;28;20060;-87
2020/12/27 00:31:23;;;;;;;8.77;5.88;;;5.20;99.90;;;;;;5037982;28;20499;-89
2020/12/27 00:33:49;;;;;;;12.35;5.85;;;5.20;99.90;;;;;;5070902;28;20040;-87
2020/12/27 00:36:21;;;;;;;6.68;5.93;;;5.20;99.90;;;;;;5070995;28;20402;-88
2020/12/27 00:38:48;;;;;;;5.90;4.97;;;5.20;99.90;;;;;;5071514;28;20044;-86
2020/12/27 00:41:21;;;;;;;8.98;6.00;;;5.20;99.90;;;;;;5070628;28;20036;-87
2020/12/27 00:43:48;;;;;;;6.40;5.43;;;5.20;99.90;;;;;;5069888;28;20076;-87
2020/12/27 00:46:14;;;;;;;8.50;5.97;;;5.20;99.90;;;;;;5053942;28;20124;-86
2020/12/27 00:48:40;;;;;;;10.60;5.28;;;5.20;99.90;;;;;;5059356;28;20043;-87
2020/12/27 00:51:06;;;;;;;6.20;5.55;;;5.30;99.90;;;;;;5074339;28;20473;-87
2020/12/27 00:53:32;;;;;;;5.72;5.30;;;5.30;99.90;;;;;;5073325;28;20477;-87
2020/12/27 00:55:57;;;;;;;4.85;4.45;;;5.30;99.90;;;;;;5057669;28;20844;-88
2020/12/27 00:58:23;;;;;;;6.93;4.40;;;5.40;99.90;;;;;;5073198;28;20049;-89
2020/12/27 01:00:49;;;;;;;7.78;4.10;;;5.30;99.90;;;;;;5053222;28;20425;-86
2020/12/27 01:03:15;;;;;;;5.07;4.57;;;5.30;99.90;;;;;;5070075;28;20402;-87
2020/12/27 01:05:42;;;;;;;4.32;3.92;;;5.30;99.90;;;;;;5069183;28;20055;-87
2020/12/27 01:08:07;;;;;;;4.97;4.15;;;5.30;99.90;;;;;;5070022;28;20048;-86
2020/12/27 01:10:33;;;;;;;7.40;3.90;;;5.30;99.90;;;;;;5052408;28;20082;-86
2020/12/27 01:12:59;;;;;;;3.88;3.53;;;5.30;99.90;;;;;;5069955;28;20059;-89
2020/12/27 01:15:25;;;;;;;3.75;3.50;;;5.30;99.90;;;;;;5064912;28;20074;-89
2020/12/27 01:17:51;;;;;;;5.70;4.30;;;5.30;99.90;;;;;;5085760;28;20118;-86
2020/12/27 01:20:16;;;;;;;3.10;2.90;;;5.40;99.90;;;;;;5053329;28;20072;-87
2020/12/27 01:22:42;;;;;;;4.15;3.75;;;5.40;99.90;;;;;;5052626;28;20482;-86
2020/12/27 01:25:11;;;;;;;6.35;3.58;;;5.30;99.90;;;;;;5080763;28;20474;-86
2020/12/27 01:27:37;;;;;;;3.35;3.08;;;5.40;99.90;;;;;;5089431;28;20055;-87
2020/12/27 01:30:05;;;;;;;4.30;3.40;;;5.40;99.90;;;;;;5073093;28;20554;-86
2020/12/27 01:32:30;;;;;;;2.80;2.60;;;5.40;99.90;;;;;;5089362;28;20040;-87
2020/12/27 01:34:56;;;;;;;3.80;2.95;;;5.40;99.90;;;;;;5072612;28;20857;-87
2020/12/27 01:37:22;;;;;;;5.53;2.90;;;5.40;99.90;;;;;;5056436;28;20176;-86
2020/12/27 01:39:48;;;;;;;4.00;3.03;;;5.40;99.90;;;;;;5089854;28;20400;-86
2020/12/27 01:42:14;;;;;;;2.42;2.33;;;5.40;99.90;;;;;;5089585;28;20370;-86
2020/12/27 01:44:39;;;;;;;3.28;2.38;;;5.40;99.90;;;;;;5089180;28;20044;-87
2020/12/27 01:47:16;;;;;;;6.15;3.30;;;5.40;99.80;;;;;;5073101;28;20453;-87
2020/12/27 01:49:44;;;;;;;3.30;2.20;;;5.40;99.90;;;;;;5089907;28;20055;-86
2020/12/27 01:52:10;;;;;;;2.20;2.00;;;5.40;99.70;;;;;;5090620;28;20044;-86
2020/12/27 01:54:38;;;;;;;2.63;2.42;;;5.40;99.60;;;;;;5072056;28;20048;-88
2020/12/27 01:57:10;;;;;;;3.90;2.47;;;5.50;99.90;;;;;;5088847;28;20044;-88
2020/12/27 01:59:38;;;;;;;5.18;2.20;;;5.40;99.70;;;;;;5090920;28;20040;-87
2020/12/27 02:02:04;;;;;;;1.90;1.80;;;5.40;99.70;;;;;;5090926;28;20119;-87
2020/12/27 02:04:32;;;;;;;2.70;2.22;;;5.40;99.50;;;;;;5073250;28;20050;-91
2020/12/27 02:06:58;;;;;;;1.95;1.85;;;5.40;99.80;;;;;;5073659;28;20044;-87
2020/12/27 02:09:24;;;;;;;1.60;1.60;;;5.30;99.80;;;;;;5090232;28;20047;-87
2020/12/27 02:12:05;;;;;;;2.53;1.65;;;5.40;99.60;;;;;;5072727;28;20035;-87
2020/12/27 02:14:31;;;;;;;1.58;1.58;;;5.30;99.80;;;;;;5073286;28;20856;-89
2020/12/27 02:16:56;;;;;;;1.40;1.40;;;5.30;99.70;;;;;;5072581;28;20055;-87
2020/12/27 02:19:22;;;;;;;2.17;1.55;;;5.30;99.60;;;;;;5079767;28;20401;-87
2020/12/27 02:21:51;;;;;;;2.20;2.10;;;5.30;99.30;;;;;;5069277;28;20078;-87
2020/12/27 02:24:17;;;;;;;1.90;1.70;;;5.20;99.50;;;;;;5086967;28;20127;-86
2020/12/27 02:27:00;;;;;;;1.50;1.50;;;5.30;99.20;;;;;;5089240;28;20143;-86
2020/12/27 02:29:30;;;;;;;1.60;1.50;;;5.30;99.30;;;;;;5109702;28;20126;-87
2020/12/27 02:31:56;;;;;;;1.77;1.67;;;5.30;99.10;;;;;;5092630;28;20089;-89
2020/12/27 02:34:23;;;;;;;1.30;1.30;;;5.30;98.90;;;;;;5072063;28;20040;-86
2020/12/27 02:36:51;;;;;;;1.13;1.13;;;5.30;98.90;;;;;;5090340;28;20481;-86
2020/12/27 02:39:19;;;;;;;1.63;1.52;;;5.20;98.80;;;;;;5071953;28;20046;-86
2020/12/27 02:41:47;;;;;;;1.48;1.35;;;5.30;98.90;;;;;;5076802;28;20035;-86
2020/12/27 02:44:14;;;;;;;1.67;1.58;;;5.30;99.10;;;;;;5083663;28;20047;-86
2020/12/27 02:46:40;;;;;;;1.10;1.10;;;5.30;99.10;;;;;;5118586;28;20626;-86
2020/12/27 02:49:05;;;;;;;1.10;1.10;;;5.20;98.70;;;;;;5130627;28;20130;-86
2020/12/27 02:51:31;;;;;;;1.05;1.00;;;5.20;98.80;;;;;;5123655;28;20046;-89
2020/12/27 02:53:58;;;;;;;5.10;1.35;;;5.20;98.90;;;;;;5091365;28;20054;-86
2020/12/27 02:56:25;;;;;;;1.10;1.10;;;5.20;98.70;;;;;;5092044;28;20050;-87
2020/12/27 02:58:53;;;;;;;1.50;1.40;;;5.10;98.90;;;;;;5092463;28;20054;-85
2020/12/27 03:01:19;;;;;;;0.80;0.80;;;5.10;99.10;;;;;;5098366;28;20032;-86
2020/12/27 03:03:45;;;;;;;1.05;0.90;;;5.10;98.80;;;;;;5097902;28;20040;-86
2020/12/27 03:06:12;;;;;;;2.75;0.93;;;5.10;98.90;;;;;;5080731;28;20043;-87
2020/12/27 03:08:38;;;;;;;1.50;0.90;;;5.10;98.80;;;;;;5109343;28;20059;-86
2020/12/27 03:11:05;;;;;;;0.98;0.98;;;5.00;98.80;;;;;;5074777;28;20043;-86
2020/12/27 03:13:32;;;;;;;1.15;1.13;;;5.10;99.00;;;;;;5091579;28;20093;-86
2020/12/27 03:16:03;;;;;;;1.17;1.17;;;5.00;98.90;;;;;;5109648;28;20044;-87
2020/12/27 03:18:29;;;;;;;1.55;0.90;;;5.00;98.70;;;;;;5090829;28;20077;-86
2020/12/27 03:20:55;;;;;;;0.93;0.93;;;5.00;98.40;;;;;;5109313;28;20122;-87
2020/12/27 03:23:21;;;;;;;1.13;1.02;;;5.10;98.40;;;;;;5110182;28;20075;-85
2020/12/27 03:25:52;;;;;;;0.93;0.90;;;5.00;98.30;;;;;;5091995;28;20157;-86
2020/12/27 03:28:18;;;;;;;1.20;1.10;;;5.10;98.10;;;;;;5077861;28;20055;-87
2020/12/27 03:30:44;;;;;;;1.10;1.10;;;5.10;98.10;;;;;;5113333;28;20092;-87
2020/12/27 03:33:11;;;;;;;2.15;1.20;;;5.10;97.90;;;;;;5079353;28;20032;-86
2020/12/27 03:35:36;;;;;;;1.23;1.23;;;5.10;98.20;;;;;;5113414;28;20048;-89
2020/12/27 03:38:02;;;;;;;1.10;1.10;;;5.00;97.90;;;;;;5094886;28;20480;-85
2020/12/27 03:40:28;;;;;;;1.10;1.00;;;5.00;97.90;;;;;;5095397;28;20449;-86
2020/12/27 03:42:54;;;;;;;1.20;1.10;;;4.90;98.10;;;;;;5094867;28;20043;-86
2020/12/27 03:45:20;;;;;;;1.00;0.90;;;5.00;98.50;;;;;;5078954;28;20443;-87
2020/12/27 03:47:45;;;;;;;1.45;1.10;;;4.90;98.10;;;;;;5078083;28;20048;-86
2020/12/27 03:50:11;;;;;;;1.95;1.40;;;4.90;98.40;;;;;;5094693;28;20130;-84
2020/12/27 03:52:37;;;;;;;1.33;1.30;;;4.90;98.60;;;;;;5088733;28;20056;-89
2020/12/27 03:55:03;;;;;;;1.27;1.17;;;4.90;98.50;;;;;;5040652;28;20040;-88
2020/12/27 03:57:29;;;;;;;0.77;0.77;;;4.80;98.30;;;;;;5074900;28;20047;-86
2020/12/27 03:59:55;;;;;;;1.00;1.00;;;4.80;98.30;;;;;;5040597;28;20056;-88
2020/12/27 04:02:21;;;;;;;11.43;1.10;;;4.90;97.90;;;;;;5041661;28;20408;-86
2020/12/27 04:04:47;;;;;;;8.68;1.25;;;4.90;98.00;;;;;;5040911;28;20059;-89
2020/12/27 04:07:12;;;;;;;1.00;1.00;;;4.80;97.80;;;;;;5075277;28;20039;-86
2020/12/27 04:09:38;;;;;;;0.90;0.90;;;4.80;97.80;;;;;;5058154;28;20040;-90
2020/12/27 04:12:04;;;;;;;1.05;1.05;;;4.80;98.00;;;;;;5074151;28;20039;-85
2020/12/27 04:14:30;;;;;;;0.88;0.88;;;4.80;98.10;;;;;;5092027;28;20393;-85
2020/12/27 04:16:55;;;;;;;1.85;0.95;;;4.80;97.60;;;;;;5073548;28;20686;-88
2020/12/27 04:19:21;;;;;;;1.63;1.20;;;4.90;97.60;;;;;;5073659;28;20093;-86
2020/12/27 04:21:48;;;;;;;0.93;0.90;;;4.80;97.80;;;;;;5056383;28;20052;-87
2020/12/27 04:24:14;;;;;;;1.20;1.20;;;4.80;97.50;;;;;;5057468;28;20032;-86
2020/12/27 04:26:40;;;;;;;0.95;0.95;;;4.80;98.00;;;;;;5057036;28;20074;-90
2020/12/27 04:29:06;;;;;;;2.45;1.30;;;4.80;98.00;;;;;;5099054;28;20510;-85
2020/12/27 04:31:32;;;;;;;1.75;1.65;;;4.80;98.50;;;;;;5094165;28;20039;-86
2020/12/27 04:33:58;;;;;;;1.70;1.60;;;4.70;98.70;;;;;;5060036;28;20068;-86
2020/12/27 04:36:25;;;;;;;1.83;1.63;;;4.60;98.60;;;;;;5093934;28;20078;-86
2020/12/27 04:38:51;;;;;;;1.70;1.60;;;4.60;98.70;;;;;;5075815;28;20556;-86
2020/12/27 04:41:18;;;;;;;1.50;1.23;;;4.60;98.90;;;;;;5093914;28;20117;-86
2020/12/27 04:43:46;;;;;;;2.05;1.80;;;4.80;99.00;;;;;;5104309;28;20105;-88
2020/12/27 04:46:13;;;;;;;1.90;1.70;;;4.60;99.30;;;;;;5084867;28;20503;-86
2020/12/27 04:48:41;;;;;;;1.70;1.60;;;4.50;99.30;;;;;;5093619;28;20109;-86
2020/12/27 04:51:09;;;;;;;2.25;1.90;;;4.50;99.70;;;;;;5093111;28;20040;-87
2020/12/27 04:53:36;;;;;;;3.05;1.70;;;4.50;99.70;;;;;;5076863;28;20476;-86
2020/12/27 04:56:04;;;;;;;1.60;1.50;;;4.50;99.80;;;;;;5075666;28;20094;-85
2020/12/27 04:58:30;;;;;;;1.75;1.65;;;4.40;99.80;;;;;;5092550;28;20118;-84
2020/12/27 05:00:56;;;;;;;1.60;1.48;;;4.50;99.90;;;;;;5071998;28;20130;-86
2020/12/27 05:03:22;;;;;;;3.22;2.00;;;4.40;99.90;;;;;;5073116;28;20044;-85
2020/12/27 05:05:49;;;;;;;2.03;1.80;;;4.40;99.90;;;;;;5071886;28;20056;-86
2020/12/27 05:08:15;;;;;;;1.80;1.70;;;4.40;99.90;;;;;;5091361;28;20047;-86
2020/12/27 05:10:42;;;;;;;3.20;1.63;;;4.40;99.90;;;;;;5073211;28;20051;-86
2020/12/27 05:13:11;;;;;;;1.55;1.45;;;4.30;99.90;;;;;;5072875;28;20044;-85
2020/12/27 05:15:38;;;;;;;3.90;2.07;;;4.30;99.90;;;;;;5073803;28;20075;-86
2020/12/27 05:18:05;;;;;;;1.65;1.55;;;4.30;99.90;;;;;;5078312;28;20172;-85
2020/12/27 05:20:32;;;;;;;5.07;1.65;;;4.30;99.90;;;;;;5101733;28;20039;-87
2020/12/27 05:23:00;;;;;;;2.67;1.52;;;4.30;99.90;;;;;;5092493;28;20070;-85
2020/12/27 05:25:30;;;;;;;1.48;1.40;;;4.30;99.90;;;;;;5093045;28;20039;-84
2020/12/27 05:28:01;;;;;;;1.58;1.48;;;4.30;99.90;;;;;;5086569;28;20081;-85
2020/12/27 05:30:28;;;;;;;2.65;1.42;;;4.20;99.90;;;;;;5072607;28;20063;-86
2020/12/27 05:32:55;;;;;;;1.58;1.52;;;4.20;99.90;;;;;;5055469;28;20055;-86
2020/12/27 05:35:22;;;;;;;1.20;1.20;;;4.20;99.90;;;;;;5039578;28;20047;-86
2020/12/27 05:37:52;;;;;;;1.02;1.02;;;4.20;99.90;;;;;;5091222;28;20048;-89
2020/12/27 05:40:19;;;;;;;1.17;1.17;;;4.20;99.90;;;;;;5055787;28;20048;-85
2020/12/27 05:42:46;;;;;;;1.00;1.00;;;4.20;99.90;;;;;;5072263;28;20044;-88
2020/12/27 05:45:17;;;;;;;0.90;0.90;;;4.10;99.90;;;;;;5071534;28;20051;-86
2020/12/27 05:47:44;;;;;;;1.70;1.20;;;4.10;99.90;;;;;;5090219;28;20036;-85
2020/12/27 05:50:16;;;;;;;1.52;1.42;;;4.10;99.90;;;;;;5106219;28;20044;-84
2020/12/27 05:52:47;;;;;;;5.72;2.10;;;4.10;99.90;;;;;;5092290;28;20043;-85
2020/12/27 05:55:21;;;;;;;1.30;1.20;;;4.20;99.90;;;;;;5074809;28;20040;-86
2020/12/27 05:57:55;;;;;;;1.20;1.20;;;4.10;99.90;;;;;;5109765;28;20049;-88
2020/12/27 06:00:23;;;;;;;1.60;1.50;;;4.10;99.90;;;;;;5080587;28;20542;-85
2020/12/27 06:02:59;;;;;;;1.40;1.13;;;4.10;99.90;;;;;;5071570;28;20556;-89
2020/12/27 06:05:44;;;;;;;3.45;1.30;;;4.20;99.90;;;;;;5072218;28;20384;-85
2020/12/27 06:08:28;;;;;;;1.05;1.02;;;4.10;99.90;;;;;;5090393;28;20040;-86
2020/12/27 06:11:04;;;;;;;3.65;1.33;;;4.10;99.90;;;;;;5071997;28;20096;-86
2020/12/27 06:14:08;;;;;;;1.60;1.17;;;4.20;99.90;;;;;;5090830;28;20051;-86
2020/12/27 06:16:46;;;;;;;1.17;1.17;;;4.10;99.90;;;;;;5021555;28;20127;-85
2020/12/27 06:19:24;;;;;;;1.00;0.93;;;4.10;99.90;;;;;;5071844;28;20040;-86
2020/12/27 06:22:09;;;;;;;0.80;0.80;;;4.10;99.90;;;;;;5089999;28;20040;-89
2020/12/27 06:24:37;;;;;;;0.95;0.95;;;4.10;99.90;;;;;;5057493;28;20213;-89
2020/12/27 06:27:05;;;;;;;0.77;0.77;;;4.10;99.90;;;;;;5071387;28;20044;-86
2020/12/27 06:29:45;;;;;;;1.45;0.90;;;4.10;99.90;;;;;;5072321;28;20048;-85
2020/12/27 06:32:15;;;;;;;5.07;1.20;;;4.10;99.90;;;;;;5089561;28;20081;-85
2020/12/27 06:34:41;;;;;;;3.20;0.85;;;4.10;99.90;;;;;;5089936;28;20089;-85
2020/12/27 06:37:07;;;;;;;1.98;1.55;;;4.20;99.90;;;;;;5092247;28;20048;-88
2020/12/27 06:39:33;;;;;;;1.75;1.00;;;4.20;99.90;;;;;;5074889;28;20047;-85
2020/12/27 06:42:10;;;;;;;1.23;1.13;;;4.20;99.90;;;;;;5109205;28;20043;-85
2020/12/27 06:44:40;;;;;;;1.10;0.95;;;4.20;99.90;;;;;;5091827;28;20054;-86
2020/12/27 06:47:07;;;;;;;1.05;1.05;;;4.20;99.90;;;;;;5070733;28;20040;-85
2020/12/27 06:49:32;;;;;;;4.55;1.30;;;4.20;99.90;;;;;;5071675;28;20485;-86
2020/12/27 06:52:19;;;;;;;1.10;1.00;;;4.20;99.90;;;;;;5054296;28;20071;-86
2020/12/27 06:54:53;;;;;;;1.15;1.15;;;4.20;99.90;;;;;;5090592;28;20602;-86
2020/12/27 06:57:45;;;;;;;3.50;0.80;;;4.20;99.90;;;;;;5106669;28;20882;-85
2020/12/27 07:00:20;;;;;;;1.92;0.90;;;4.20;99.90;;;;;;5091559;28;20051;-86
2020/12/27 07:02:46;;;;;;;1.52;0.68;;;4.20;99.90;;;;;;5094753;28;20058;-86
2020/12/27 07:05:34;;;;;;;4.57;0.70;;;4.20;99.90;;;;;;5095756;28;20604;-85
2020/12/27 07:08:04;;;;;;;1.13;0.90;;;4.10;99.90;;;;;;5095549;28;20492;-86
2020/12/27 07:10:31;;;;;;;;;;;4.10;99.90;;;;;;5076732;28;20093;-86
2020/12/27 07:13:07;;;;;;;0.60;0.60;;;4.30;99.90;;;;;;5075525;28;19920;-86
2020/12/27 07:15:33;;;;;;;1.88;0.82;;;4.20;99.90;;;;;;5092595;28;20090;-85
2020/12/27 07:18:07;;;;;;;1.00;1.00;;;4.20;99.90;;;;;;5074397;28;20044;-86
2020/12/27 07:20:33;;;;;;;1.73;0.63;;;4.10;99.90;;;;;;5058761;28;20047;-86
2020/12/27 07:22:58;;;;;;;1.40;0.63;;;4.20;99.90;;;;;;5074604;28;20605;-86
2020/12/27 07:25:24;;;;;;;1.50;0.93;;;4.10;99.90;;;;;;5093329;28;20122;-86
2020/12/27 07:27:50;;;;;;;1.13;0.60;;;4.10;99.90;;;;;;5074867;28;20048;-85
2020/12/27 07:30:18;;;;;;;1.27;0.75;;;4.10;99.90;;;;;;5074715;28;20047;-86
2020/12/27 07:32:44;;;;;;;1.35;0.55;;;4.10;99.90;;;;;;5071764;28;20056;-85
2020/12/27 07:35:10;;;;;;;2.00;0.50;;;4.10;99.90;;;;;;5078011;28;20071;-87
2020/12/27 07:37:37;;;;;;;0.70;0.70;;;4.00;99.90;;;;;;5113774;28;20047;-85
2020/12/27 07:40:04;;;;;;;2.92;0.50;;;4.00;99.90;;;;;;5061640;28;20051;-87
2020/12/27 07:42:32;;;;;;;0.40;0.40;;;4.00;99.90;;;;;;5094898;28;20048;-87
2020/12/27 07:45:16;;;;;;;0.80;0.60;;;4.10;99.90;;;;;;5095009;28;20043;-90
2020/12/27 07:47:43;;;;;;;1.70;0.60;;;4.00;99.90;;;;;;5078359;28;20039;-85
2020/12/27 07:50:14;;;;;;;0.68;0.50;;;4.10;99.90;;;;;;5077612;28;20552;-85
2020/12/27 07:52:55;;;;;;;0.60;0.60;;;4.00;99.90;;;;;;5112782;28;20077;-85
2020/12/27 07:55:21;;;;;;;;;;;4.00;99.90;;;;;;5112865;28;20044;-85
2020/12/27 07:57:47;;;;;;;2.10;0.60;;;4.00;99.90;;;;;;5095224;28;19926;-84
2020/12/27 08:00:13;;;;;;;0.90;0.90;;;4.00;99.90;;;;;;5112798;28;20039;-84
2020/12/27 08:02:43;;;;;;;1.02;1.00;;;4.00;99.90;;;;;;5077235;28;20040;-84
2020/12/27 08:05:13;;;;;;;0.70;0.70;;;4.00;99.90;;;;;;5058170;28;20123;-85
2020/12/27 08:07:39;;;;;;;0.70;0.60;;;4.00;99.90;;;;;;5112774;28;20063;-85
2020/12/27 08:10:20;;;;;;;8.32;0.90;;;4.00;99.90;;;;;;5112284;27;20044;-84
2020/12/27 08:13:06;;;;;;;0.60;0.60;;;4.00;99.90;;;;;;5114899;27;20377;-84
2020/12/27 08:15:39;;;;;;;0.60;0.60;;;4.00;99.90;;;;;;5125865;27;20404;-84
2020/12/27 08:18:07;;;;;;;1.33;0.77;;;4.00;99.90;;;;;;5092079;28;20074;-86
2020/12/27 08:20:46;;;;;;;1.67;0.73;;;4.10;99.90;;;;;;5092360;28;20048;-86
2020/12/27 08:23:16;;;;;;;1.05;0.70;;;4.10;99.90;;;;;;5072979;28;20150;-85
2020/12/27 08:25:42;;;;;;;1.27;0.90;;;4.10;99.90;;;;;;5081887;28;20050;-86
2020/12/27 08:28:13;;;;;;;0.50;0.50;;;4.10;99.90;;;;;;5111382;28;20062;-87
2020/12/27 08:30:38;;;;;;;1.10;0.65;;;4.10;99.90;;;;;;5112711;28;20118;-86
2020/12/27 08:33:07;;;;;;;0.68;0.68;;;4.20;99.90;;;;;;5066306;27;20131;-89
2020/12/27 08:35:34;;;;;;;2.47;0.60;;;4.10;99.90;;;;;;5083735;27;20040;-86
2020/12/27 08:38:17;;;;;;;1.20;0.80;;;4.10;99.90;;;;;;5100441;27;20043;-89
2020/12/27 08:40:46;;;;;;;1.00;0.70;;;4.10;99.90;;;;;;5101155;27;20043;-85
2020/12/27 08:43:48;;;;;;;1.75;0.60;;;4.10;99.90;;;;;;5101065;28;20126;-88
2020/12/27 08:46:18;;;;;;;1.35;0.60;;;4.20;99.90;;;;;;5120137;27;20047;-85
2020/12/27 08:48:51;;;;;;;3.20;0.80;;;4.20;99.90;;;;;;5120113;27;20062;-87
2020/12/27 08:51:19;;;;;;;2.35;0.50;;;4.20;99.90;;;;;;5101340;27;20165;-87
2020/12/27 08:53:46;;;;;;;1.25;0.50;;;4.20;99.90;;;;;;5081018;28;20047;-85
2020/12/27 08:56:12;;;;;;;2.97;0.73;;;4.20;99.90;;;;;;5076847;27;20801;-87
2020/12/27 08:58:38;;;;;;;2.25;0.80;;;4.20;99.90;;;;;;5068326;27;20066;-85
2020/12/27 09:01:21;;;;;;;1.00;0.90;;;4.30;99.90;;;;;;5104691;27;20040;-89
2020/12/27 09:03:46;;;;;;;2.63;0.80;;;4.30;99.90;;;;;;5076721;28;20036;-84
2020/12/27 09:06:13;;;;;;;0.80;0.50;;;4.30;99.90;;;;;;5096322;28;20035;-85
2020/12/27 09:08:39;;;;;;;0.52;0.52;;;4.30;99.90;;;;;;5103814;28;20039;-87
2020/12/27 09:11:05;;;;;;;3.67;0.70;;;4.30;99.90;;;;;;5112684;27;20050;-90
2020/12/27 09:13:38;;;;;;;0.60;0.60;;;4.40;99.90;;;;;;5097448;27;20537;-87
2020/12/27 09:16:04;;;;;;;10.50;0.80;;;4.30;99.90;;;;;;5114216;27;20038;-89
2020/12/27 09:18:32;;;;;;;1.35;0.55;;;4.40;99.90;;;;;;5091302;28;20497;-85
2020/12/27 09:21:07;;;;;;;1.65;0.80;;;4.30;99.90;;;;;;5082524;27;20126;-86
2020/12/27 09:23:34;;;;;;;0.73;0.73;;;4.30;99.90;;;;;;5114182;27;20039;-86
2020/12/27 09:26:10;;;;;;;4.78;0.80;;;4.30;99.90;;;;;;5113887;27;20484;-87
2020/12/27 09:28:38;;;;;;;0.43;0.40;;;4.30;99.90;;;;;;5113593;27;20055;-86
2020/12/27 09:31:04;;;;;;;1.20;0.40;;;4.30;99.90;;;;;;5113514;27;20050;-89
2020/12/27 09:33:35;;;;;;;0.40;0.40;;;4.40;99.90;;;;;;5131846;27;20054;-86
2020/12/27 09:36:03;;;;;;;2.50;0.75;;;4.40;99.90;;;;;;5077806;28;20044;-86
2020/12/27 09:38:33;;;;;;;2.47;0.77;;;4.30;99.90;;;;;;5072078;28;20059;-86
2020/12/27 09:41:09;;;;;;;0.55;0.55;;;4.30;99.90;;;;;;5090760;28;20530;-90
2020/12/27 09:43:47;;;;;;;0.88;0.65;;;4.30;99.90;;;;;;5084331;28;20447;-87
2020/12/27 09:46:13;;;;;;;0.70;0.60;;;4.40;99.90;;;;;;5111174;28;20067;-88
2020/12/27 09:48:39;;;;;;;1.20;0.50;;;4.40;99.90;;;;;;5076612;28;20113;-87
2020/12/27 09:51:15;;;;;;;1.17;0.63;;;4.40;99.90;;;;;;5059894;28;20072;-89
2020/12/27 09:53:41;;;;;;;0.50;0.50;;;4.40;99.90;;;;;;5083428;28;20036;-88
2020/12/27 09:56:06;;;;;;;3.17;0.40;;;4.40;99.90;;;;;;5072108;28;20050;-90
2020/12/27 09:58:32;;;;;;;1.90;0.52;;;4.40;99.90;;;;;;5022266;28;20490;-87
2020/12/27 10:00:58;;;;;;;2.63;0.50;;;4.40;99.90;;;;;;5039687;28;20084;-86
2020/12/27 10:03:24;;;;;;;0.75;0.20;;;4.50;99.90;;;;;;5055197;28;20055;-87
2020/12/27 10:05:49;;;;;;;0.50;0.50;;;4.40;99.90;;;;;;5056361;28;20078;-87
2020/12/27 10:08:15;;;;;;;1.75;0.40;;;4.40;99.90;;;;;;5072743;28;20079;-87
2020/12/27 10:10:41;;;;;;;0.93;0.50;;;4.50;99.90;;;;;;5040073;28;20138;-86
2020/12/27 10:13:06;;;;;;;0.88;0.38;;;4.50;99.90;;;;;;5067281;27;20035;-85
2020/12/27 10:15:32;;;;;;;0.80;0.60;;;4.50;99.90;;;;;;5117787;27;20039;-89
2020/12/27 10:17:58;;;;;;;2.25;0.50;;;4.50;99.90;;;;;;5094913;27;20036;-86
2020/12/27 10:20:26;;;;;;;1.08;0.50;;;4.60;99.90;;;;;;5076246;28;20126;-89
2020/12/27 10:22:54;;;;;;;2.53;0.40;;;4.50;99.90;;;;;;5078019;28;20046;-90
2020/12/27 10:25:20;;;;;;;2.67;0.60;;;4.50;99.90;;;;;;5080373;28;20050;-89
2020/12/27 10:27:46;;;;;;;1.02;0.38;;;4.50;99.90;;;;;;5071192;28;20047;-89
2020/12/27 10:30:12;;;;;;;0.57;0.28;;;4.60;99.90;;;;;;5057206;28;20060;-91
2020/12/27 10:32:37;;;;;;;0.28;0.20;;;4.50;99.90;;;;;;5072451;28;20102;-89
2020/12/27 10:35:03;;;;;;;1.42;0.40;;;4.50;99.90;;;;;;5055275;28;20123;-89
2020/12/27 10:37:32;;;;;;;1.48;0.50;;;4.50;99.90;;;;;;5056025;28;20046;-92
2020/12/27 10:39:59;;;;;;;0.20;0.20;;;4.50;99.90;;;;;;5056361;28;20531;-92
2020/12/27 10:42:25;;;;;;;0.17;0.17;;;4.60;99.90;;;;;;5092670;28;20074;-89
2020/12/27 10:44:51;;;;;;;0.85;0.30;;;4.60;99.90;;;;;;5091828;28;20089;-91
2020/12/27 10:47:17;;;;;;;0.95;0.50;;;4.60;99.90;;;;;;5061452;28;20060;-90
2020/12/27 10:49:43;;;;;;;0.68;0.45;;;4.50;99.90;;;;;;5072985;28;20117;-89
2020/12/27 10:52:09;;;;;;;1.80;0.60;;;4.60;99.90;;;;;;5022934;28;20056;-90
2020/12/27 10:54:34;;;;;;;3.90;0.40;;;4.60;99.90;;;;;;5065522;28;20036;-89
2020/12/27 10:57:00;;;;;;;0.57;0.40;;;4.50;99.90;;;;;;5075927;28;20126;-90
2020/12/27 10:59:26;;;;;;;0.45;0.40;;;4.60;99.90;;;;;;5090775;28;20089;-87
2020/12/27 11:01:53;;;;;;;0.68;0.30;;;4.60;99.90;;;;;;5076183;28;20175;-87
2020/12/27 11:04:19;;;;;;;1.67;0.77;;;4.60;99.90;;;;;;5088837;28;20043;-88
2020/12/27 11:06:45;;;;;;;0.47;0.30;;;4.60;99.90;;;;;;5091676;28;20050;-88
2020/12/27 11:09:11;;;;;;;0.82;0.38;;;4.60;99.90;;;;;;5069819;28;20385;-86
2020/12/27 11:11:38;;;;;;;2.53;0.40;;;4.60;99.90;;;;;;5085042;28;20452;-85
2020/12/27 11:14:07;;;;;;;0.40;0.40;;;4.60;99.90;;;;;;5085898;28;20036;-88
2020/12/27 11:16:33;;;;;;;0.57;0.30;;;4.60;99.90;;;;;;5083903;28;20043;-85
2020/12/27 11:19:00;;;;;;;4.03;0.57;;;4.60;99.90;;;;;;5065208;28;20043;-85
2020/12/27 11:21:26;;;;;;;2.65;0.47;;;4.60;99.90;;;;;;5056633;28;20028;-87
2020/12/27 11:23:52;;;;;;;0.43;0.43;;;4.60;99.90;;;;;;5076956;28;20032;-88
2020/12/27 11:26:19;;;;;;;1.42;0.50;;;4.60;99.90;;;;;;5038387;28;20081;-89
2020/12/27 11:28:46;;;;;;;1.20;0.98;;;4.60;99.90;;;;;;5094527;28;20056;-90
2020/12/27 11:31:15;;;;;;;0.30;0.30;;;4.60;99.90;;;;;;5068871;28;20059;-88
2020/12/27 11:33:40;;;;;;;0.50;0.50;;;4.60;99.90;;;;;;5090374;28;20063;-86
2020/12/27 11:36:06;;;;;;;0.35;0.35;;;4.60;99.90;;;;;;5102230;28;20388;-86
2020/12/27 11:38:32;;;;;;;0.50;0.38;;;4.60;99.90;;;;;;5102888;28;20392;-87
2020/12/27 11:40:58;;;;;;;0.35;0.30;;;4.60;99.90;;;;;;5098878;28;20032;-86
2020/12/27 11:43:24;;;;;;;3.50;0.30;;;4.60;99.90;;;;;;5066581;28;20041;-87
2020/12/27 11:45:50;;;;;;;0.43;0.43;;;4.60;99.90;;;;;;5055107;28;20071;-86
2020/12/27 11:48:15;;;;;;;0.20;0.20;;;4.60;99.90;;;;;;5060741;28;20040;-85
2020/12/27 11:50:42;;;;;;;3.42;0.30;;;4.60;99.90;;;;;;5074524;28;20040;-87
2020/12/27 11:53:08;;;;;;;1.17;0.38;;;4.60;99.90;;;;;;5042382;28;20590;-88
2020/12/27 11:55:36;;;;;;;0.20;0.20;;;4.60;99.90;;;;;;5087736;28;20065;-87
2020/12/27 11:58:02;;;;;;;0.50;0.28;;;4.60;99.90;;;;;;5092740;28;20107;-87
2020/12/27 12:00:28;;;;;;;0.43;0.30;;;4.60;99.90;;;;;;5062269;28;20138;-87
2020/12/27 12:02:54;;;;;;;0.90;0.28;;;4.60;99.90;;;;;;5049233;28;20040;-87
2020/12/27 12:05:20;;;;;;;0.30;0.30;;;4.60;99.90;;;;;;5076612;28;20036;-90
2020/12/27 12:07:46;;;;;;;0.20;0.20;;;4.60;99.90;;;;;;5051389;28;20046;-89
2020/12/27 12:10:11;;;;;;;0.32;0.32;;;4.50;99.90;;;;;;5070706;28;20058;-87
2020/12/27 12:12:37;;;;;;;0.77;0.30;;;4.50;99.90;;;;;;5041207;28;20094;-87
2020/12/27 12:15:03;;;;;;;0.20;0.20;;;4.60;99.90;;;;;;5052919;28;20035;-87
2020/12/27 12:17:29;;;;;;;0.60;0.40;;;4.50;99.90;;;;;;5102169;28;20047;-87
2020/12/27 12:19:54;;;;;;;0.30;0.30;;;4.60;99.90;;;;;;5084699;28;20158;-87
2020/12/27 12:22:20;;;;;;;0.30;0.30;;;4.50;99.90;;;;;;5066717;27;20045;-89
2020/12/27 12:24:46;;;;;;;0.52;0.30;;;4.50;99.90;;;;;;5067212;27;20042;-88
2020/12/27 12:27:12;;;;;;;0.90;0.35;;;4.50;99.90;;;;;;5101551;27;20042;-90
2020/12/27 12:29:37;;;;;;;1.13;0.60;;;4.50;99.90;;;;;;5086058;27;20062;-89
2020/12/27 12:32:03;;;;;;;0.22;0.20;;;4.50;99.90;;;;;;5112985;27;20095;-89
2020/12/27 12:34:29;;;;;;;0.50;0.40;;;4.50;99.90;;;;;;5083191;28;20036;-88
2020/12/27 12:36:55;;;;;;;0.20;0.20;;;4.50;99.90;;;;;;5094141;28;20170;-87
2020/12/27 12:39:26;;;;;;;0.30;0.30;;;4.50;99.90;;;;;;5087165;28;20036;-89
2020/12/27 12:41:56;;;;;;;0.63;0.32;;;4.50;99.90;;;;;;5063900;28;20154;-88
2020/12/27 12:44:22;;;;;;;1.33;0.30;;;4.50;99.90;;;;;;5072375;28;20489;-90
2020/12/27 12:46:48;;;;;;;3.42;0.75;;;4.50;99.90;;;;;;5053657;28;20047;-89
2020/12/27 12:49:14;;;;;;;2.92;0.20;;;4.50;99.90;;;;;;5070095;28;20036;-88
2020/12/27 12:51:40;;;;;;;1.98;0.30;;;4.50;99.90;;;;;;5066921;28;20425;-91
2020/12/27 12:54:06;;;;;;;0.75;0.22;;;4.50;99.90;;;;;;5058172;28;20040;-92
2020/12/27 12:56:31;;;;;;;0.30;0.30;;;4.50;99.90;;;;;;5072839;28;20865;-92
2020/12/27 12:58:57;;;;;;;2.38;1.27;;;4.50;99.90;;;;;;5071205;28;20131;-89
2020/12/27 13:01:23;;;;;;;2.85;0.50;;;4.50;99.90;;;;;;5097833;28;20134;-87
2020/12/27 13:03:49;;;;;;;1.50;0.38;;;4.50;99.90;;;;;;5098153;28;20046;-87